sensor_id;sensor_type;location;lat;lon;timestamp;pressure;altitude;pressure_sealevel;temperature;humidity
16355;BME280;8287;51.644;8.494;2022-07-09T00:00:11;101566.50;;;19.89;71.10
16355;BME280;8287;51.644;8.494;2022-07-09T00:02:38;101566.50;;;19.89;70.98
16355;BME280;8287;51.644;8.494;2022-07-09T00:05:07;101563.25;;;19.83;71.10
16355;BME280;8287;51.644;8.494;2022-07-09T00:07:34;101554.41;;;19.83;70.91
16355;BME280;8287;51.644;8.494;2022-07-09T00:10:00;101556.28;;;19.82;71.29
16355;BME280;8287;51.644;8.494;2022-07-09T00:12:27;101568.94;;;19.70;72.15
16355;BME280;8287;51.644;8.494;2022-07-09T00:14:54;101557.19;;;19.62;72.63
16355;BME280;8287;51.644;8.494;2022-07-09T00:17:20;101556.81;;;19.52;73.64
16355;BME280;8287;51.644;8.494;2022-07-09T00:19:47;101556.03;;;19.51;73.68
16355;BME280;8287;51.644;8.494;2022-07-09T00:22:15;101550.31;;;19.53;73.63
16355;BME280;8287;51.644;8.494;2022-07-09T00:24:42;101552.22;;;19.52;73.90
16355;BME280;8287;51.644;8.494;2022-07-09T00:27:08;101546.97;;;19.56;73.46
16355;BME280;8287;51.644;8.494;2022-07-09T00:29:35;101537.13;;;19.60;73.16
16355;BME280;8287;51.644;8.494;2022-07-09T00:32:02;101536.44;;;19.63;73.34
16355;BME280;8287;51.644;8.494;2022-07-09T00:34:29;101539.56;;;19.65;73.38
16355;BME280;8287;51.644;8.494;2022-07-09T00:36:55;101531.19;;;19.66;73.14
16355;BME280;8287;51.644;8.494;2022-07-09T00:39:23;101532.88;;;19.71;73.33
16355;BME280;8287;51.644;8.494;2022-07-09T00:41:50;101523.56;;;19.68;73.56
16355;BME280;8287;51.644;8.494;2022-07-09T00:44:16;101528.38;;;19.63;73.95
16355;BME280;8287;51.644;8.494;2022-07-09T00:46:43;101535.66;;;19.62;74.20
16355;BME280;8287;51.644;8.494;2022-07-09T00:49:10;101530.19;;;19.59;74.05
16355;BME280;8287;51.644;8.494;2022-07-09T00:51:38;101526.00;;;19.61;74.66
16355;BME280;8287;51.644;8.494;2022-07-09T00:54:05;101525.13;;;19.69;73.69
16355;BME280;8287;51.644;8.494;2022-07-09T00:56:33;101526.59;;;19.67;74.60
16355;BME280;8287;51.644;8.494;2022-07-09T00:58:59;101522.66;;;19.52;76.14
16355;BME280;8287;51.644;8.494;2022-07-09T01:01:27;101523.31;;;19.61;75.28
16355;BME280;8287;51.644;8.494;2022-07-09T01:03:54;101526.25;;;19.68;74.97
16355;BME280;8287;51.644;8.494;2022-07-09T01:06:20;101520.97;;;19.72;74.24
16355;BME280;8287;51.644;8.494;2022-07-09T01:08:47;101526.34;;;19.72;74.77
16355;BME280;8287;51.644;8.494;2022-07-09T01:11:14;101514.94;;;19.75;74.22
16355;BME280;8287;51.644;8.494;2022-07-09T01:13:42;101520.88;;;19.80;73.71
16355;BME280;8287;51.644;8.494;2022-07-09T01:16:12;101511.78;;;19.73;74.63
16355;BME280;8287;51.644;8.494;2022-07-09T01:18:40;101514.47;;;19.73;74.63
16355;BME280;8287;51.644;8.494;2022-07-09T01:21:08;101514.03;;;19.71;74.78
16355;BME280;8287;51.644;8.494;2022-07-09T01:23:34;101513.81;;;19.76;74.92
16355;BME280;8287;51.644;8.494;2022-07-09T01:26:01;101516.28;;;19.69;75.46
16355;BME280;8287;51.644;8.494;2022-07-09T01:28:28;101509.22;;;19.76;74.75
16355;BME280;8287;51.644;8.494;2022-07-09T01:30:54;101506.41;;;19.61;76.27
16355;BME280;8287;51.644;8.494;2022-07-09T01:33:21;101500.81;;;19.54;76.77
16355;BME280;8287;51.644;8.494;2022-07-09T01:35:47;101500.34;;;19.64;76.00
16355;BME280;8287;51.644;8.494;2022-07-09T01:38:15;101498.81;;;19.75;74.74
16355;BME280;8287;51.644;8.494;2022-07-09T01:40:42;101495.22;;;19.71;75.48
16355;BME280;8287;51.644;8.494;2022-07-09T01:43:08;101492.19;;;19.72;75.65
16355;BME280;8287;51.644;8.494;2022-07-09T01:45:35;101484.69;;;19.66;76.36
16355;BME280;8287;51.644;8.494;2022-07-09T01:48:02;101486.47;;;19.74;75.47
16355;BME280;8287;51.644;8.494;2022-07-09T01:50:29;101478.97;;;19.79;75.65
16355;BME280;8287;51.644;8.494;2022-07-09T01:52:55;101479.75;;;19.68;76.38
16355;BME280;8287;51.644;8.494;2022-07-09T01:55:23;101474.50;;;19.71;75.62
16355;BME280;8287;51.644;8.494;2022-07-09T01:57:50;101471.44;;;19.73;76.05
16355;BME280;8287;51.644;8.494;2022-07-09T02:00:17;101472.25;;;19.73;75.86
16355;BME280;8287;51.644;8.494;2022-07-09T02:02:44;101473.38;;;19.72;76.05
16355;BME280;8287;51.644;8.494;2022-07-09T02:05:12;101473.34;;;19.60;77.54
16355;BME280;8287;51.644;8.494;2022-07-09T02:07:39;101465.50;;;19.67;76.83
16355;BME280;8287;51.644;8.494;2022-07-09T02:10:06;101461.81;;;19.72;76.69
16355;BME280;8287;51.644;8.494;2022-07-09T02:12:34;101458.78;;;19.73;76.32
16355;BME280;8287;51.644;8.494;2022-07-09T02:15:01;101462.94;;;19.59;77.67
16355;BME280;8287;51.644;8.494;2022-07-09T02:17:27;101465.88;;;19.66;77.36
16355;BME280;8287;51.644;8.494;2022-07-09T02:19:54;101461.03;;;19.59;78.17
16355;BME280;8287;51.644;8.494;2022-07-09T02:22:21;101460.50;;;19.66;77.82
16355;BME280;8287;51.644;8.494;2022-07-09T02:24:47;101452.88;;;19.68;77.45
16355;BME280;8287;51.644;8.494;2022-07-09T02:27:14;101465.31;;;19.72;77.16
16355;BME280;8287;51.644;8.494;2022-07-09T02:29:42;101457.44;;;19.67;77.73
16355;BME280;8287;51.644;8.494;2022-07-09T02:32:09;101458.34;;;19.71;77.12
16355;BME280;8287;51.644;8.494;2022-07-09T02:34:36;101446.59;;;19.76;77.03
16355;BME280;8287;51.644;8.494;2022-07-09T02:37:03;101447.72;;;19.75;77.07
16355;BME280;8287;51.644;8.494;2022-07-09T02:39:29;101449.81;;;19.81;76.00
16355;BME280;8287;51.644;8.494;2022-07-09T02:41:56;101440.06;;;19.65;77.96
16355;BME280;8287;51.644;8.494;2022-07-09T02:44:23;101446.81;;;19.71;77.59
16355;BME280;8287;51.644;8.494;2022-07-09T02:46:51;101452.19;;;19.71;77.56
16355;BME280;8287;51.644;8.494;2022-07-09T02:49:17;101448.25;;;19.68;77.65
16355;BME280;8287;51.644;8.494;2022-07-09T02:51:46;101449.72;;;19.78;76.94
16355;BME280;8287;51.644;8.494;2022-07-09T02:54:13;101453.75;;;19.84;76.83
16355;BME280;8287;51.644;8.494;2022-07-09T02:56:39;101454.41;;;19.81;76.81
16355;BME280;8287;51.644;8.494;2022-07-09T02:59:06;101453.75;;;19.84;76.55
16355;BME280;8287;51.644;8.494;2022-07-09T03:01:32;101457.22;;;19.84;76.79
16355;BME280;8287;51.644;8.494;2022-07-09T03:04:00;101455.31;;;19.85;77.30
16355;BME280;8287;51.644;8.494;2022-07-09T03:06:27;101448.38;;;19.84;77.49
16355;BME280;8287;51.644;8.494;2022-07-09T03:08:54;101445.69;;;19.84;77.59
16355;BME280;8287;51.644;8.494;2022-07-09T03:11:20;101447.03;;;19.78;78.66
16355;BME280;8287;51.644;8.494;2022-07-09T03:13:47;101452.50;;;19.81;77.82
16355;BME280;8287;51.644;8.494;2022-07-09T03:16:13;101452.41;;;19.78;78.64
16355;BME280;8287;51.644;8.494;2022-07-09T03:18:40;101443.22;;;19.79;77.90
16355;BME280;8287;51.644;8.494;2022-07-09T03:21:08;101445.47;;;19.77;78.57
16355;BME280;8287;51.644;8.494;2022-07-09T03:23:36;101443.91;;;19.76;78.60
16355;BME280;8287;51.644;8.494;2022-07-09T03:26:04;101447.81;;;19.78;78.64
16355;BME280;8287;51.644;8.494;2022-07-09T03:28:31;101435.34;;;19.74;78.87
16355;BME280;8287;51.644;8.494;2022-07-09T03:30:58;101441.66;;;19.78;78.81
16355;BME280;8287;51.644;8.494;2022-07-09T03:33:25;101433.47;;;19.74;79.03
16355;BME280;8287;51.644;8.494;2022-07-09T03:35:53;101441.09;;;19.72;79.57
16355;BME280;8287;51.644;8.494;2022-07-09T03:38:21;101443.44;;;19.74;79.41
16355;BME280;8287;51.644;8.494;2022-07-09T03:40:47;101443.00;;;19.72;79.61
16355;BME280;8287;51.644;8.494;2022-07-09T03:43:14;101442.34;;;19.75;78.94
16355;BME280;8287;51.644;8.494;2022-07-09T03:45:41;101437.41;;;19.77;78.94
16355;BME280;8287;51.644;8.494;2022-07-09T03:48:08;101438.53;;;19.76;79.18
16355;BME280;8287;51.644;8.494;2022-07-09T03:50:34;101446.13;;;19.74;79.25
16355;BME280;8287;51.644;8.494;2022-07-09T03:53:01;101449.50;;;19.71;79.60
16355;BME280;8287;51.644;8.494;2022-07-09T03:55:29;101446.47;;;19.60;80.19
16355;BME280;8287;51.644;8.494;2022-07-09T03:57:55;101440.97;;;19.57;80.29
16355;BME280;8287;51.644;8.494;2022-07-09T04:00:22;101447.59;;;19.59;80.39
16355;BME280;8287;51.644;8.494;2022-07-09T04:02:49;101448.03;;;19.61;80.71
16355;BME280;8287;51.644;8.494;2022-07-09T04:05:15;101446.34;;;19.57;80.91
16355;BME280;8287;51.644;8.494;2022-07-09T04:07:42;101449.50;;;19.59;81.05
16355;BME280;8287;51.644;8.494;2022-07-09T04:10:09;101447.59;;;19.59;80.87
16355;BME280;8287;51.644;8.494;2022-07-09T04:12:37;101444.00;;;19.55;81.38
16355;BME280;8287;51.644;8.494;2022-07-09T04:15:05;101445.00;;;19.63;80.45
16355;BME280;8287;51.644;8.494;2022-07-09T04:17:32;101440.97;;;19.69;80.20
16355;BME280;8287;51.644;8.494;2022-07-09T04:19:59;101437.16;;;19.70;80.23
16355;BME280;8287;51.644;8.494;2022-07-09T04:22:26;101435.34;;;19.74;80.31
16355;BME280;8287;51.644;8.494;2022-07-09T04:24:52;101439.53;;;19.71;80.54
16355;BME280;8287;51.644;8.494;2022-07-09T04:27:19;101437.50;;;19.68;80.98
16355;BME280;8287;51.644;8.494;2022-07-09T04:29:47;101438.28;;;19.69;81.21
16355;BME280;8287;51.644;8.494;2022-07-09T04:32:14;101431.91;;;19.73;80.89
16355;BME280;8287;51.644;8.494;2022-07-09T04:34:41;101434.47;;;19.70;80.73
16355;BME280;8287;51.644;8.494;2022-07-09T04:37:08;101438.41;;;19.72;81.20
16355;BME280;8287;51.644;8.494;2022-07-09T04:39:34;101433.91;;;19.76;80.94
16355;BME280;8287;51.644;8.494;2022-07-09T04:42:01;101433.13;;;19.76;81.33
16355;BME280;8287;51.644;8.494;2022-07-09T04:44:28;101439.53;;;19.71;81.56
16355;BME280;8287;51.644;8.494;2022-07-09T04:46:56;101436.94;;;19.75;81.28
16355;BME280;8287;51.644;8.494;2022-07-09T04:49:22;101435.34;;;19.74;81.64
16355;BME280;8287;51.644;8.494;2022-07-09T04:51:50;101450.63;;;19.70;82.35
16355;BME280;8287;51.644;8.494;2022-07-09T04:54:16;101441.88;;;19.73;81.76
16355;BME280;8287;51.644;8.494;2022-07-09T04:56:43;101444.13;;;19.71;82.56
16355;BME280;8287;51.644;8.494;2022-07-09T04:59:09;101446.13;;;19.74;82.09
16355;BME280;8287;51.644;8.494;2022-07-09T05:01:36;101442.44;;;19.78;82.07
16355;BME280;8287;51.644;8.494;2022-07-09T05:04:04;101430.88;;;19.78;82.11
16355;BME280;8287;51.644;8.494;2022-07-09T05:06:31;101424.16;;;19.84;81.93
16355;BME280;8287;51.644;8.494;2022-07-09T05:08:57;101431.66;;;19.90;81.66
16355;BME280;8287;51.644;8.494;2022-07-09T05:11:24;101430.31;;;19.96;81.60
16355;BME280;8287;51.644;8.494;2022-07-09T05:13:51;101423.78;;;19.97;81.73
16355;BME280;8287;51.644;8.494;2022-07-09T05:16:18;101419.97;;;19.98;81.62
16355;BME280;8287;51.644;8.494;2022-07-09T05:18:44;101422.56;;;20.07;81.45
16355;BME280;8287;51.644;8.494;2022-07-09T05:21:12;101430.06;;;20.13;81.39
16355;BME280;8287;51.644;8.494;2022-07-09T05:23:41;101432.41;;;20.15;81.13
16355;BME280;8287;51.644;8.494;2022-07-09T05:26:08;101426.00;;;20.19;80.75
16355;BME280;8287;51.644;8.494;2022-07-09T05:28:34;101433.97;;;20.04;82.11
16355;BME280;8287;51.644;8.494;2022-07-09T05:31:01;101440.03;;;20.01;82.26
16355;BME280;8287;51.644;8.494;2022-07-09T05:33:28;101444.75;;;20.04;82.51
16355;BME280;8287;51.644;8.494;2022-07-09T05:35:55;101445.84;;;20.15;82.28
16355;BME280;8287;51.644;8.494;2022-07-09T05:38:23;101447.66;;;20.11;82.15
16355;BME280;8287;51.644;8.494;2022-07-09T05:40:50;101452.47;;;20.17;82.42
16355;BME280;8287;51.644;8.494;2022-07-09T05:43:17;101447.88;;;20.18;81.77
16355;BME280;8287;51.644;8.494;2022-07-09T05:45:43;101450.31;;;20.23;81.90
16355;BME280;8287;51.644;8.494;2022-07-09T05:48:10;101445.41;;;20.25;81.83
16355;BME280;8287;51.644;8.494;2022-07-09T05:50:37;101442.50;;;20.18;82.29
16355;BME280;8287;51.644;8.494;2022-07-09T05:53:03;101449.03;;;20.05;82.11
16355;BME280;8287;51.644;8.494;2022-07-09T05:55:31;101447.31;;;20.00;82.65
16355;BME280;8287;51.644;8.494;2022-07-09T05:57:58;101440.47;;;20.03;82.58
16355;BME280;8287;51.644;8.494;2022-07-09T06:00:25;101444.66;;;20.12;82.46
16355;BME280;8287;51.644;8.494;2022-07-09T06:02:51;101439.91;;;20.21;82.09
16355;BME280;8287;51.644;8.494;2022-07-09T06:05:19;101445.16;;;20.30;82.03
16355;BME280;8287;51.644;8.494;2022-07-09T06:07:46;101450.84;;;20.28;81.61
16355;BME280;8287;51.644;8.494;2022-07-09T06:10:13;101450.53;;;20.30;81.22
16355;BME280;8287;51.644;8.494;2022-07-09T06:12:44;101447.63;;;20.23;81.27
16355;BME280;8287;51.644;8.494;2022-07-09T06:15:11;101445.59;;;20.32;80.73
16355;BME280;8287;51.644;8.494;2022-07-09T06:17:38;101450.78;;;20.25;80.02
16355;BME280;8287;51.644;8.494;2022-07-09T06:20:06;101446.28;;;20.29;79.85
16355;BME280;8287;51.644;8.494;2022-07-09T06:22:33;101441.09;;;20.36;79.34
16355;BME280;8287;51.644;8.494;2022-07-09T06:24:59;101444.44;;;20.44;79.30
16355;BME280;8287;51.644;8.494;2022-07-09T06:27:26;101440.69;;;20.49;78.45
16355;BME280;8287;51.644;8.494;2022-07-09T06:29:54;101447.06;;;20.56;78.66
16355;BME280;8287;51.644;8.494;2022-07-09T06:32:21;101446.00;;;20.45;78.40
16355;BME280;8287;51.644;8.494;2022-07-09T06:34:48;101458.53;;;20.53;78.19
16355;BME280;8287;51.644;8.494;2022-07-09T06:37:14;101456.06;;;20.48;77.81
16355;BME280;8287;51.644;8.494;2022-07-09T06:39:41;101454.41;;;20.44;77.84
16355;BME280;8287;51.644;8.494;2022-07-09T06:42:15;101457.09;;;20.44;77.75
16355;BME280;8287;51.644;8.494;2022-07-09T06:44:43;101460.53;;;20.56;77.53
16355;BME280;8287;51.644;8.494;2022-07-09T06:47:11;101459.59;;;20.64;77.46
16355;BME280;8287;51.644;8.494;2022-07-09T06:49:38;101449.75;;;20.56;77.77
16355;BME280;8287;51.644;8.494;2022-07-09T06:52:05;101453.34;;;20.60;77.25
16355;BME280;8287;51.644;8.494;2022-07-09T06:54:33;101453.53;;;20.67;76.98
16355;BME280;8287;51.644;8.494;2022-07-09T06:56:59;101456.16;;;20.79;76.33
16355;BME280;8287;51.644;8.494;2022-07-09T06:59:26;101446.94;;;20.80;76.16
16355;BME280;8287;51.644;8.494;2022-07-09T07:01:53;101446.09;;;20.76;75.56
16355;BME280;8287;51.644;8.494;2022-07-09T07:04:21;101456.94;;;20.80;75.75
16355;BME280;8287;51.644;8.494;2022-07-09T07:06:48;101457.63;;;20.77;74.97
16355;BME280;8287;51.644;8.494;2022-07-09T07:09:15;101455.13;;;20.84;74.78
16355;BME280;8287;51.644;8.494;2022-07-09T07:11:43;101452.44;;;20.84;74.46
16355;BME280;8287;51.644;8.494;2022-07-09T07:14:10;101450.19;;;20.86;74.20
16355;BME280;8287;51.644;8.494;2022-07-09T07:16:36;101440.50;;;20.97;74.11
16355;BME280;8287;51.644;8.494;2022-07-09T07:19:03;101439.00;;;20.99;73.82
16355;BME280;8287;51.644;8.494;2022-07-09T07:21:31;101452.13;;;21.01;73.41
16355;BME280;8287;51.644;8.494;2022-07-09T07:23:58;101451.38;;;21.00;73.26
16355;BME280;8287;51.644;8.494;2022-07-09T07:26:25;101445.28;;;20.88;73.34
16355;BME280;8287;51.644;8.494;2022-07-09T07:28:52;101454.78;;;20.85;73.46
16355;BME280;8287;51.644;8.494;2022-07-09T07:31:19;101451.41;;;20.88;73.97
16355;BME280;8287;51.644;8.494;2022-07-09T07:33:48;101441.69;;;20.99;74.20
16355;BME280;8287;51.644;8.494;2022-07-09T07:36:14;101443.81;;;21.21;73.31
16355;BME280;8287;51.644;8.494;2022-07-09T07:38:42;101451.97;;;21.25;73.08
16355;BME280;8287;51.644;8.494;2022-07-09T07:41:10;101443.72;;;21.33;71.86
16355;BME280;8287;51.644;8.494;2022-07-09T07:43:37;101446.44;;;21.33;71.71
16355;BME280;8287;51.644;8.494;2022-07-09T07:46:04;101439.97;;;21.53;71.73
16355;BME280;8287;51.644;8.494;2022-07-09T07:48:30;101436.91;;;21.70;71.22
16355;BME280;8287;51.644;8.494;2022-07-09T07:50:57;101428.78;;;21.86;70.71
16355;BME280;8287;51.644;8.494;2022-07-09T07:53:24;101431.72;;;21.96;70.05
16355;BME280;8287;51.644;8.494;2022-07-09T07:55:52;101436.56;;;22.06;69.73
16355;BME280;8287;51.644;8.494;2022-07-09T07:58:18;101435.94;;;22.13;68.81
16355;BME280;8287;51.644;8.494;2022-07-09T08:00:45;101428.19;;;22.11;68.67
16355;BME280;8287;51.644;8.494;2022-07-09T08:03:12;101419.50;;;22.21;68.51
16355;BME280;8287;51.644;8.494;2022-07-09T08:05:38;101440.97;;;22.33;68.09
16355;BME280;8287;51.644;8.494;2022-07-09T08:08:06;101427.63;;;22.21;67.34
16355;BME280;8287;51.644;8.494;2022-07-09T08:10:32;101427.84;;;22.32;67.50
16355;BME280;8287;51.644;8.494;2022-07-09T08:13:00;101430.13;;;22.30;67.18
16355;BME280;8287;51.644;8.494;2022-07-09T08:15:27;101428.19;;;22.30;67.34
16355;BME280;8287;51.644;8.494;2022-07-09T08:17:54;101420.50;;;22.32;67.80
16355;BME280;8287;51.644;8.494;2022-07-09T08:20:20;101413.84;;;22.45;67.25
16355;BME280;8287;51.644;8.494;2022-07-09T08:22:47;101412.19;;;22.60;64.98
16355;BME280;8287;51.644;8.494;2022-07-09T08:25:14;101400.72;;;22.85;65.80
16355;BME280;8287;51.644;8.494;2022-07-09T08:27:40;101405.03;;;22.90;66.03
16355;BME280;8287;51.644;8.494;2022-07-09T08:30:09;101406.94;;;22.89;63.94
16355;BME280;8287;51.644;8.494;2022-07-09T08:32:36;101400.03;;;22.92;64.58
16355;BME280;8287;51.644;8.494;2022-07-09T08:35:03;101406.34;;;22.99;64.85
16355;BME280;8287;51.644;8.494;2022-07-09T08:37:30;101409.16;;;23.06;64.31
16355;BME280;8287;51.644;8.494;2022-07-09T08:39:56;101401.31;;;23.20;63.97
16355;BME280;8287;51.644;8.494;2022-07-09T08:42:23;101417.66;;;23.27;63.99
16355;BME280;8287;51.644;8.494;2022-07-09T08:44:50;101405.03;;;23.35;63.03
16355;BME280;8287;51.644;8.494;2022-07-09T08:47:18;101402.38;;;23.38;62.73
16355;BME280;8287;51.644;8.494;2022-07-09T08:49:45;101385.34;;;23.38;62.27
16355;BME280;8287;51.644;8.494;2022-07-09T08:52:13;101390.69;;;23.34;61.91
16355;BME280;8287;51.644;8.494;2022-07-09T08:54:42;101391.38;;;23.28;61.88
16355;BME280;8287;51.644;8.494;2022-07-09T08:57:09;101382.97;;;23.33;61.51
16355;BME280;8287;51.644;8.494;2022-07-09T08:59:35;101391.03;;;23.29;61.18
16355;BME280;8287;51.644;8.494;2022-07-09T09:02:04;101405.97;;;23.01;62.42
16355;BME280;8287;51.644;8.494;2022-07-09T09:04:34;101403.34;;;23.04;61.91
16355;BME280;8287;51.644;8.494;2022-07-09T09:07:11;101391.66;;;23.00;63.53
16355;BME280;8287;51.644;8.494;2022-07-09T09:09:38;101389.16;;;22.88;63.48
16355;BME280;8287;51.644;8.494;2022-07-09T09:12:05;101391.94;;;22.92;63.10
16355;BME280;8287;51.644;8.494;2022-07-09T09:14:32;101388.09;;;22.93;63.04
16355;BME280;8287;51.644;8.494;2022-07-09T09:17:03;101368.59;;;23.06;63.17
16355;BME280;8287;51.644;8.494;2022-07-09T09:19:30;101373.66;;;23.30;62.96
16355;BME280;8287;51.644;8.494;2022-07-09T09:21:58;101374.59;;;23.41;61.85
16355;BME280;8287;51.644;8.494;2022-07-09T09:24:25;101365.41;;;23.49;61.91
16355;BME280;8287;51.644;8.494;2022-07-09T09:26:56;101380.22;;;23.55;61.44
16355;BME280;8287;51.644;8.494;2022-07-09T09:29:22;101374.16;;;23.65;61.75
16355;BME280;8287;51.644;8.494;2022-07-09T09:31:49;101372.94;;;23.63;60.51
16355;BME280;8287;51.644;8.494;2022-07-09T09:34:16;101379.72;;;23.76;60.52
16355;BME280;8287;51.644;8.494;2022-07-09T09:36:44;101378.13;;;23.71;60.44
16355;BME280;8287;51.644;8.494;2022-07-09T09:39:17;101370.22;;;23.89;60.34
16355;BME280;8287;51.644;8.494;2022-07-09T09:41:45;101364.28;;;24.06;59.67
16355;BME280;8287;51.644;8.494;2022-07-09T09:44:14;101370.09;;;24.08;59.37
16355;BME280;8287;51.644;8.494;2022-07-09T09:46:42;101363.13;;;24.07;58.91
16355;BME280;8287;51.644;8.494;2022-07-09T09:49:10;101367.66;;;23.99;57.53
16355;BME280;8287;51.644;8.494;2022-07-09T09:51:44;101366.06;;;23.95;58.06
16355;BME280;8287;51.644;8.494;2022-07-09T09:54:14;101359.00;;;23.87;57.54
16355;BME280;8287;51.644;8.494;2022-07-09T09:56:41;101364.94;;;23.70;57.87
16355;BME280;8287;51.644;8.494;2022-07-09T09:59:09;101371.94;;;23.45;58.03
16355;BME280;8287;51.644;8.494;2022-07-09T10:01:37;101363.16;;;23.51;58.79
16355;BME280;8287;51.644;8.494;2022-07-09T10:04:04;101361.66;;;23.57;58.53
16355;BME280;8287;51.644;8.494;2022-07-09T10:06:32;101363.97;;;23.55;57.62
16355;BME280;8287;51.644;8.494;2022-07-09T10:09:00;101354.91;;;23.70;58.51
16355;BME280;8287;51.644;8.494;2022-07-09T10:11:39;101358.66;;;23.62;58.10
16355;BME280;8287;51.644;8.494;2022-07-09T10:14:06;101358.72;;;23.66;57.84
16355;BME280;8287;51.644;8.494;2022-07-09T10:16:37;101353.59;;;23.61;58.09
16355;BME280;8287;51.644;8.494;2022-07-09T10:19:04;101355.63;;;23.67;57.96
16355;BME280;8287;51.644;8.494;2022-07-09T10:21:35;101341.06;;;23.79;58.43
16355;BME280;8287;51.644;8.494;2022-07-09T10:24:02;101347.00;;;23.58;57.26
16355;BME280;8287;51.644;8.494;2022-07-09T10:26:45;101348.53;;;23.56;57.16
16355;BME280;8287;51.644;8.494;2022-07-09T10:29:23;101350.09;;;23.57;56.66
16355;BME280;8287;51.644;8.494;2022-07-09T10:31:51;101350.19;;;23.67;57.19
16355;BME280;8287;51.644;8.494;2022-07-09T10:34:38;101349.25;;;23.82;57.53
16355;BME280;8287;51.644;8.494;2022-07-09T10:37:09;101347.56;;;24.00;56.90
16355;BME280;8287;51.644;8.494;2022-07-09T10:39:36;101351.19;;;24.11;56.34
16355;BME280;8287;51.644;8.494;2022-07-09T10:42:05;101346.34;;;24.30;56.62
16355;BME280;8287;51.644;8.494;2022-07-09T10:44:36;101339.66;;;24.17;56.47
16355;BME280;8287;51.644;8.494;2022-07-09T10:47:03;101334.03;;;24.36;56.23
16355;BME280;8287;51.644;8.494;2022-07-09T10:49:30;101329.78;;;24.35;56.29
16355;BME280;8287;51.644;8.494;2022-07-09T10:51:59;101335.31;;;24.46;55.50
16355;BME280;8287;51.644;8.494;2022-07-09T10:54:26;101323.81;;;24.56;56.08
16355;BME280;8287;51.644;8.494;2022-07-09T10:56:53;101320.81;;;24.68;55.58
16355;BME280;8287;51.644;8.494;2022-07-09T10:59:22;101315.75;;;24.63;54.83
16355;BME280;8287;51.644;8.494;2022-07-09T11:01:48;101302.72;;;24.79;55.53
16355;BME280;8287;51.644;8.494;2022-07-09T11:04:27;101299.28;;;24.89;54.24
16355;BME280;8287;51.644;8.494;2022-07-09T11:06:55;101303.94;;;24.88;53.79
16355;BME280;8287;51.644;8.494;2022-07-09T11:09:22;101295.81;;;24.92;52.86
16355;BME280;8287;51.644;8.494;2022-07-09T11:11:48;101301.19;;;24.85;52.71
16355;BME280;8287;51.644;8.494;2022-07-09T11:14:15;101301.50;;;24.73;53.16
16355;BME280;8287;51.644;8.494;2022-07-09T11:16:53;101304.50;;;24.61;53.44
16355;BME280;8287;51.644;8.494;2022-07-09T11:19:19;101298.25;;;24.57;53.13
16355;BME280;8287;51.644;8.494;2022-07-09T11:21:47;101298.84;;;24.40;53.35
16355;BME280;8287;51.644;8.494;2022-07-09T11:24:14;101292.88;;;24.24;53.41
16355;BME280;8287;51.644;8.494;2022-07-09T11:26:40;101294.63;;;24.06;54.93
16355;BME280;8287;51.644;8.494;2022-07-09T11:29:08;101287.94;;;23.93;55.47
16355;BME280;8287;51.644;8.494;2022-07-09T11:31:35;101301.47;;;23.93;55.42
16355;BME280;8287;51.644;8.494;2022-07-09T11:34:03;101304.50;;;23.88;56.68
16355;BME280;8287;51.644;8.494;2022-07-09T11:36:40;101300.13;;;23.80;57.89
16355;BME280;8287;51.644;8.494;2022-07-09T11:39:07;101297.63;;;23.65;59.50
16355;BME280;8287;51.644;8.494;2022-07-09T11:41:42;101311.41;;;23.56;62.73
16355;BME280;8287;51.644;8.494;2022-07-09T11:44:09;101301.19;;;22.68;67.08
16355;BME280;8287;51.644;8.494;2022-07-09T11:46:37;101307.13;;;21.94;70.97
16355;BME280;8287;51.644;8.494;2022-07-09T11:49:14;101300.50;;;22.11;73.40
16355;BME280;8287;51.644;8.494;2022-07-09T11:51:41;101297.63;;;22.00;73.42
16355;BME280;8287;51.644;8.494;2022-07-09T11:54:09;101305.56;;;21.21;74.92
16355;BME280;8287;51.644;8.494;2022-07-09T11:56:40;101295.91;;;21.04;76.43
16355;BME280;8287;51.644;8.494;2022-07-09T11:59:08;101304.25;;;21.15;78.43
16355;BME280;8287;51.644;8.494;2022-07-09T12:01:36;101299.94;;;21.29;80.05
16355;BME280;8287;51.644;8.494;2022-07-09T12:04:03;101279.34;;;21.21;80.94
16355;BME280;8287;51.644;8.494;2022-07-09T12:06:31;101288.03;;;21.49;78.83
16355;BME280;8287;51.644;8.494;2022-07-09T12:08:59;101287.06;;;21.57;80.10
16355;BME280;8287;51.644;8.494;2022-07-09T12:11:26;101278.00;;;21.65;80.00
16355;BME280;8287;51.644;8.494;2022-07-09T12:13:53;101285.81;;;21.89;76.93
16355;BME280;8287;51.644;8.494;2022-07-09T12:16:19;101285.69;;;22.01;76.38
16355;BME280;8287;51.644;8.494;2022-07-09T12:18:46;101301.66;;;22.10;76.49
16355;BME280;8287;51.644;8.494;2022-07-09T12:21:13;101297.38;;;22.09;76.67
16355;BME280;8287;51.644;8.494;2022-07-09T12:23:41;101298.88;;;22.06;76.64
16355;BME280;8287;51.644;8.494;2022-07-09T12:26:08;101295.41;;;22.06;76.44
16355;BME280;8287;51.644;8.494;2022-07-09T12:28:34;101296.19;;;22.06;76.91
16355;BME280;8287;51.644;8.494;2022-07-09T12:31:01;101296.75;;;21.96;76.81
16355;BME280;8287;51.644;8.494;2022-07-09T12:33:27;101294.78;;;21.93;76.87
16355;BME280;8287;51.644;8.494;2022-07-09T12:35:54;101293.16;;;21.89;77.05
16355;BME280;8287;51.644;8.494;2022-07-09T12:38:21;101284.34;;;21.92;77.39
16355;BME280;8287;51.644;8.494;2022-07-09T12:40:49;101280.84;;;21.91;77.79
16355;BME280;8287;51.644;8.494;2022-07-09T12:43:15;101268.69;;;22.01;78.02
16355;BME280;8287;51.644;8.494;2022-07-09T12:45:42;101262.09;;;22.21;78.96
16355;BME280;8287;51.644;8.494;2022-07-09T12:48:09;101259.47;;;22.43;78.89
16355;BME280;8287;51.644;8.494;2022-07-09T12:50:35;101252.31;;;22.54;77.97
16355;BME280;8287;51.644;8.494;2022-07-09T12:53:02;101256.25;;;22.83;78.20
16355;BME280;8287;51.644;8.494;2022-07-09T12:55:29;101249.59;;;23.03;76.48
16355;BME280;8287;51.644;8.494;2022-07-09T12:57:57;101233.81;;;23.08;74.95
16355;BME280;8287;51.644;8.494;2022-07-09T13:00:23;101233.41;;;23.06;74.51